Safety Harbor, Florida
Current Conditions -  °F | °C
As of 3:35 AM on Sunday 23 Nov 2014 (Local Time) from KCLW Reporting Station
Overcast Overcast  
Wind Chill: 68°   Ceiling: 1100
Heat Index: 68°   Visibility: 10mi
Dew Point: 66°   Wind: 6mph
Humidity: 94%   Direction: 120°ESE
Pressure: 29.99"   Gusts: NA
Location:  27.99°N, 82.69°W
Report Text: KCLW 230835Z AUTO 12005KT 10SM OVC011 20/19 A2999 RMK AO2
Loading
Personal Weather Stations






























Interactive Weather Map New forecast layout! Learn more

10-Day Weather Forecast

Advertisements
Track Severe Weather on mobile